createdAt,value
2023-02-24T00:00:38.375Z,9.56
2023-02-24T00:03:44.720Z,9.53
2023-02-24T00:06:46.917Z,9.56
2023-02-24T00:09:48.948Z,9.53
2023-02-24T00:12:50.322Z,9.49
2023-02-24T00:16:00.876Z,9.48
2023-02-24T00:19:03.049Z,9.47
2023-02-24T00:22:06.433Z,9.43
2023-02-24T00:25:08.771Z,9.44
2023-02-24T00:28:10.162Z,9.41
2023-02-24T00:31:17.229Z,9.38
2023-02-24T00:34:18.755Z,9.34
2023-02-24T00:37:24.312Z,9.35
2023-02-24T00:40:26.487Z,9.34
2023-02-24T00:43:27.982Z,9.36
2023-02-24T00:46:31.175Z,9.38
2023-02-24T00:49:44.399Z,9.30
2023-02-24T00:52:45.792Z,9.34
2023-02-24T00:55:47.163Z,9.27
2023-02-24T00:58:48.562Z,9.27
2023-02-24T01:01:51.019Z,9.25
2023-02-24T01:04:52.804Z,9.22
2023-02-24T01:07:54.223Z,9.23
2023-02-24T01:11:17.013Z,9.21
2023-02-24T01:14:21.628Z,9.21
2023-02-24T01:17:23.800Z,9.21
2023-02-24T01:20:25.204Z,9.23
2023-02-24T01:23:26.655Z,9.21
2023-02-24T01:26:28.800Z,9.20
2023-02-24T01:29:30.232Z,9.23
2023-02-24T01:32:31.965Z,9.18
2023-02-24T01:35:35.143Z,9.16
2023-02-24T01:38:37.094Z,9.08
2023-02-24T01:41:44.204Z,9.01
2023-02-24T01:44:45.970Z,9.02
2023-02-24T01:47:48.180Z,9.00
2023-02-24T01:50:51.309Z,8.95
2023-02-24T01:53:52.982Z,8.95
2023-02-24T01:56:57.328Z,8.90
2023-02-24T02:00:11.031Z,8.82
2023-02-24T02:03:37.806Z,8.77
2023-02-24T02:06:40.008Z,8.80
2023-02-24T02:09:41.992Z,8.76
2023-02-24T02:12:44.964Z,8.73
2023-02-24T02:16:02.835Z,8.73
2023-02-24T02:19:29.771Z,8.70
2023-02-24T02:22:47.983Z,8.69
2023-02-24T02:26:04.139Z,8.70
2023-02-24T02:29:33.517Z,8.71
2023-02-24T02:32:52.058Z,8.72
2023-02-24T02:36:04.233Z,8.70
2023-02-24T02:39:26.809Z,8.64
2023-02-24T02:42:41.882Z,8.67
2023-02-24T02:45:49.621Z,8.65
2023-02-24T02:48:58.067Z,8.61
2023-02-24T02:52:07.377Z,8.61
2023-02-24T02:55:18.345Z,8.59
2023-02-24T02:58:26.244Z,8.60
2023-02-24T03:01:31.788Z,8.58
2023-02-24T03:04:33.936Z,8.54
2023-02-24T03:07:42.649Z,8.52
2023-02-24T03:10:50.784Z,8.54
2023-02-24T03:13:55.869Z,8.57
2023-02-24T03:16:59.111Z,8.51
2023-02-24T03:20:17.428Z,8.48
2023-02-24T03:23:26.820Z,8.51
2023-02-24T03:26:35.877Z,8.55
2023-02-24T03:29:48.833Z,8.60
2023-02-24T03:32:56.210Z,8.59
2023-02-24T03:36:01.687Z,8.61
2023-02-24T03:39:05.733Z,8.62
2023-02-24T03:42:17.896Z,8.71
2023-02-24T03:45:22.994Z,8.68
2023-02-24T03:48:27.076Z,8.63
2023-02-24T03:51:28.827Z,8.53
2023-02-24T03:54:46.827Z,8.42
2023-02-24T03:58:10.255Z,8.31
2023-02-24T04:01:55.732Z,8.38
2023-02-24T04:05:20.722Z,8.45
2023-02-24T04:08:37.935Z,8.48
2023-02-24T04:11:43.377Z,8.46
2023-02-24T04:14:56.860Z,8.44
2023-02-24T04:18:09.020Z,8.43
2023-02-24T04:21:13.230Z,8.42
2023-02-24T04:24:20.348Z,8.36
2023-02-24T04:27:24.072Z,8.42
2023-02-24T04:30:31.950Z,8.44
2023-02-24T04:33:33.785Z,8.42
2023-02-24T04:36:35.560Z,8.38
2023-02-24T04:39:38.419Z,8.43
2023-02-24T04:42:48.844Z,8.44
2023-02-24T04:45:51.532Z,8.43
2023-02-24T04:48:52.903Z,8.42
2023-02-24T04:51:54.286Z,8.39
2023-02-24T04:54:55.672Z,8.38
2023-02-24T04:57:57.225Z,8.38
2023-02-24T05:00:58.603Z,8.46
2023-02-24T05:04:00.157Z,8.54
2023-02-24T05:07:03.009Z,8.59
2023-02-24T05:10:04.833Z,8.68
2023-02-24T05:13:07.319Z,8.77
2023-02-24T05:16:09.103Z,8.69
2023-02-24T05:19:30.855Z,8.59
2023-02-24T05:22:32.227Z,8.51
2023-02-24T05:25:37.568Z,8.47
2023-02-24T05:28:41.036Z,8.37
2023-02-24T05:31:42.600Z,8.40
2023-02-24T05:34:44.127Z,8.53
2023-02-24T05:37:45.517Z,8.57
2023-02-24T05:40:47.488Z,8.53
2023-02-24T05:43:55.441Z,8.54
2023-02-24T05:47:00.666Z,8.76
2023-02-24T05:50:03.202Z,8.94
2023-02-24T05:53:04.712Z,8.99
2023-02-24T05:56:06.094Z,8.94
2023-02-24T05:59:11.201Z,8.90
2023-02-24T06:02:16.200Z,8.90
2023-02-24T06:05:28.391Z,8.83
2023-02-24T06:08:36.699Z,8.76
2023-02-24T06:11:40.541Z,8.69
2023-02-24T06:14:42.293Z,8.60
2023-02-24T06:17:44.993Z,8.48
2023-02-24T06:20:51.036Z,8.47
2023-02-24T06:23:52.515Z,8.42
2023-02-24T06:26:56.194Z,8.36
2023-02-24T06:29:57.923Z,8.44
2023-02-24T06:32:59.472Z,8.46
2023-02-24T06:36:00.942Z,8.52
2023-02-24T06:39:02.402Z,8.58
2023-02-24T06:42:05.115Z,8.66
2023-02-24T06:45:08.273Z,8.65
2023-02-24T06:48:09.773Z,8.63
2023-02-24T06:51:13.905Z,8.68
2023-02-24T06:54:15.653Z,8.77
2023-02-24T06:57:17.689Z,8.76
2023-02-24T07:00:25.087Z,8.61
2023-02-24T07:03:39.535Z,8.44
2023-02-24T07:06:42.980Z,8.37
2023-02-24T07:09:45.287Z,8.33
2023-02-24T07:12:46.776Z,8.27
2023-02-24T07:15:49.233Z,8.33
2023-02-24T07:18:56.461Z,8.44
2023-02-24T07:22:00.646Z,8.41
2023-02-24T07:25:02.069Z,8.34
2023-02-24T07:28:03.469Z,8.27
2023-02-24T07:31:08.904Z,8.29
2023-02-24T07:34:14.844Z,8.44
2023-02-24T07:37:16.695Z,8.53
2023-02-24T07:40:21.811Z,8.51
2023-02-24T07:43:23.269Z,8.52
2023-02-24T07:46:28.321Z,8.54
2023-02-24T07:49:30.322Z,8.47
2023-02-24T07:52:32.739Z,8.41
2023-02-24T07:55:35.960Z,8.40
2023-02-24T07:58:37.480Z,8.57
2023-02-24T08:01:39.005Z,8.60
2023-02-24T08:04:44.239Z,8.59
2023-02-24T08:07:49.832Z,8.59
2023-02-24T08:11:01.018Z,8.58
2023-02-24T08:14:03.511Z,8.49
2023-02-24T08:17:05.414Z,8.48
2023-02-24T08:20:13.044Z,8.49
2023-02-24T08:23:14.455Z,8.45
2023-02-24T08:26:16.004Z,8.35
2023-02-24T08:29:20.360Z,8.35
2023-02-24T08:32:24.778Z,8.34
2023-02-24T08:35:32.197Z,8.45
2023-02-24T08:38:42.542Z,8.49
2023-02-24T08:41:51.188Z,8.51
2023-02-24T08:44:53.706Z,8.53
2023-02-24T08:48:00.525Z,8.48
2023-02-24T08:51:08.613Z,8.48
2023-02-24T08:54:15.429Z,8.42
2023-02-24T08:57:18.131Z,8.54
2023-02-24T09:00:39.724Z,8.61
2023-02-24T09:03:46.060Z,8.60
2023-02-24T09:07:10.803Z,8.78
2023-02-24T09:10:17.681Z,9.03
2023-02-24T09:13:19.094Z,8.90
2023-02-24T09:16:23.432Z,8.90
2023-02-24T09:19:43.758Z,8.93
2023-02-24T09:23:07.121Z,8.88
2023-02-24T09:26:11.002Z,9.05
2023-02-24T09:29:32.165Z,9.26
2023-02-24T09:32:34.693Z,9.36
2023-02-24T09:35:37.031Z,9.44
2023-02-24T09:39:00.451Z,9.50
2023-02-24T09:42:07.969Z,9.46
2023-02-24T09:45:23.087Z,9.72
2023-02-24T09:48:43.549Z,9.86
2023-02-24T09:51:45.884Z,10.26
2023-02-24T09:55:11.078Z,10.49
2023-02-24T09:58:47.614Z,10.29
2023-02-24T10:02:02.149Z,10.19
2023-02-24T10:05:27.930Z,10.57
2023-02-24T10:08:38.044Z,10.24
2023-02-24T10:11:53.370Z,10.41
2023-02-24T10:15:16.547Z,10.34
2023-02-24T10:18:39.605Z,10.26
2023-02-24T10:21:50.273Z,10.28
2023-02-24T10:25:01.445Z,10.20
2023-02-24T10:28:24.206Z,10.18
2023-02-24T10:31:48.277Z,10.44
2023-02-24T10:34:51.708Z,10.59
2023-02-24T10:37:53.985Z,10.84
2023-02-24T10:40:59.626Z,10.63
2023-02-24T10:44:04.790Z,10.79
2023-02-24T10:47:13.816Z,10.96
2023-02-24T10:50:25.546Z,11.03
2023-02-24T10:53:37.688Z,11.03
2023-02-24T10:56:44.447Z,11.08
2023-02-24T11:00:05.568Z,10.98
2023-02-24T11:03:19.433Z,10.90
2023-02-24T11:06:40.439Z,11.04
2023-02-24T11:09:52.000Z,11.14
2023-02-24T11:13:14.607Z,11.14
2023-02-24T11:16:54.109Z,11.14
2023-02-24T11:20:10.814Z,11.17
2023-02-24T11:23:17.524Z,11.30
2023-02-24T11:26:27.172Z,11.55
2023-02-24T11:29:52.978Z,11.78
2023-02-24T11:33:26.078Z,12.06
2023-02-24T11:36:58.218Z,12.56
2023-02-24T11:40:19.672Z,12.73
2023-02-24T11:43:26.405Z,13.02
2023-02-24T11:46:52.456Z,12.65
2023-02-24T11:49:57.967Z,12.52
2023-02-24T11:53:05.861Z,12.66
2023-02-24T11:56:22.950Z,12.96
2023-02-24T11:59:38.178Z,13.09
2023-02-24T12:02:51.785Z,12.54
2023-02-24T12:05:57.072Z,12.52
2023-02-24T12:09:10.552Z,12.50
2023-02-24T12:12:20.388Z,12.38
2023-02-24T12:15:38.885Z,12.75
2023-02-24T12:19:06.372Z,13.30
2023-02-24T12:22:17.803Z,13.09
2023-02-24T12:25:23.821Z,12.66
2023-02-24T12:29:03.717Z,12.68
2023-02-24T12:32:15.724Z,12.77
2023-02-24T12:35:22.427Z,12.69
2023-02-24T12:38:32.159Z,12.42
2023-02-24T12:41:52.524Z,12.38
2023-02-24T12:45:15.818Z,12.41
2023-02-24T12:48:32.125Z,12.22
2023-02-24T12:51:37.532Z,12.19
2023-02-24T12:55:06.932Z,12.14
2023-02-24T12:58:12.142Z,12.11
2023-02-24T13:01:38.440Z,12.45
2023-02-24T13:04:49.053Z,12.76
2023-02-24T13:08:09.556Z,12.57
2023-02-24T13:11:36.336Z,12.56
2023-02-24T13:14:43.618Z,12.41
2023-02-24T13:17:48.045Z,12.34
2023-02-24T13:20:50.658Z,12.31
2023-02-24T13:24:03.363Z,12.10
2023-02-24T13:27:07.241Z,12.04
2023-02-24T13:30:11.886Z,12.18
2023-02-24T13:33:19.497Z,12.18
2023-02-24T13:36:24.669Z,12.23
2023-02-24T13:39:34.094Z,12.23
2023-02-24T13:42:35.879Z,12.27
2023-02-24T13:45:41.874Z,12.37
2023-02-24T13:48:48.058Z,12.51
2023-02-24T13:51:59.263Z,12.73
2023-02-24T13:55:20.700Z,12.73
2023-02-24T13:58:38.484Z,12.57
2023-02-24T14:01:57.346Z,12.78
2023-02-24T14:05:07.943Z,12.69
2023-02-24T14:08:18.880Z,12.74
2023-02-24T14:11:26.024Z,12.90
2023-02-24T14:14:28.631Z,12.66
2023-02-24T14:17:35.868Z,12.55
2023-02-24T14:20:37.953Z,12.73
2023-02-24T14:23:39.487Z,12.74
2023-02-24T14:26:50.679Z,12.66
2023-02-24T14:29:53.029Z,12.51
2023-02-24T14:32:55.004Z,12.51
2023-02-24T14:35:57.329Z,12.43
2023-02-24T14:39:18.103Z,12.47
2023-02-24T14:42:20.766Z,12.60
2023-02-24T14:45:26.104Z,12.56
2023-02-24T14:48:29.854Z,12.77
2023-02-24T14:51:37.429Z,12.86
2023-02-24T14:54:50.363Z,12.92
2023-02-24T14:58:01.486Z,12.96
2023-02-24T15:01:14.422Z,12.84
2023-02-24T15:04:32.135Z,12.63
2023-02-24T15:07:34.805Z,12.74
2023-02-24T15:10:36.491Z,12.77
2023-02-24T15:13:53.932Z,12.63
2023-02-24T15:17:01.497Z,12.53
2023-02-24T15:20:06.812Z,12.42
2023-02-24T15:23:32.543Z,12.36
2023-02-24T15:26:34.965Z,12.27
2023-02-24T15:29:36.373Z,12.23
2023-02-24T15:32:38.463Z,12.18
2023-02-24T15:35:48.805Z,12.12
2023-02-24T15:38:54.745Z,12.18
2023-02-24T15:42:16.807Z,12.04
2023-02-24T15:45:29.882Z,12.04
2023-02-24T15:48:31.531Z,11.96
2023-02-24T15:51:38.530Z,11.95
2023-02-24T15:54:42.328Z,11.82
2023-02-24T15:57:44.300Z,11.79
2023-02-24T16:00:46.217Z,11.74
2023-02-24T16:03:47.763Z,11.77
2023-02-24T16:06:54.754Z,11.87
2023-02-24T16:09:57.675Z,11.77
2023-02-24T16:13:00.800Z,11.70
2023-02-24T16:16:02.326Z,11.64
2023-02-24T16:19:03.832Z,11.55
2023-02-24T16:22:05.278Z,11.58
2023-02-24T16:25:07.371Z,11.51
2023-02-24T16:28:20.230Z,11.41
2023-02-24T16:31:23.028Z,11.51
2023-02-24T16:34:24.583Z,11.53
2023-02-24T16:37:29.949Z,11.55
2023-02-24T16:40:37.552Z,11.52
2023-02-24T16:43:39.715Z,11.38
2023-02-24T16:46:44.103Z,11.33
2023-02-24T16:49:45.622Z,11.40
2023-02-24T16:52:47.077Z,11.36
2023-02-24T16:55:49.365Z,11.28
2023-02-24T16:58:50.791Z,11.28
2023-02-24T17:01:54.013Z,11.29
2023-02-24T17:04:55.407Z,11.24
2023-02-24T17:07:57.698Z,11.15
2023-02-24T17:10:59.387Z,11.19
2023-02-24T17:14:00.779Z,11.02
2023-02-24T17:17:02.390Z,10.84
2023-02-24T17:20:04.606Z,10.92
2023-02-24T17:23:06.868Z,10.88
2023-02-24T17:26:13.128Z,10.78
2023-02-24T17:29:14.821Z,10.80
2023-02-24T17:32:16.427Z,10.68
2023-02-24T17:35:18.728Z,10.61
2023-02-24T17:38:22.259Z,10.48
2023-02-24T17:41:24.908Z,10.42
2023-02-24T17:44:26.357Z,10.37
2023-02-24T17:47:28.136Z,10.46
2023-02-24T17:50:29.736Z,10.39
2023-02-24T17:53:31.690Z,10.33
2023-02-24T17:56:33.095Z,10.29
2023-02-24T17:59:37.705Z,10.24
2023-02-24T18:02:39.841Z,10.21
2023-02-24T18:05:41.331Z,10.23
2023-02-24T18:08:42.822Z,10.22
2023-02-24T18:11:45.769Z,10.32
2023-02-24T18:14:56.162Z,10.37
2023-02-24T18:18:03.951Z,10.45
2023-02-24T18:21:06.814Z,10.42
2023-02-24T18:24:09.283Z,10.43
2023-02-24T18:27:10.754Z,10.34
2023-02-24T18:30:13.135Z,10.38
2023-02-24T18:33:14.878Z,10.39
2023-02-24T18:36:17.683Z,10.39
2023-02-24T18:39:19.092Z,10.44
2023-02-24T18:42:20.612Z,10.30
2023-02-24T18:45:23.801Z,10.32
2023-02-24T18:48:26.289Z,10.35
2023-02-24T18:51:28.891Z,10.32
2023-02-24T18:54:30.338Z,10.18
2023-02-24T18:57:31.718Z,10.16
2023-02-24T19:00:33.220Z,10.03
2023-02-24T19:03:34.641Z,10.04
2023-02-24T19:06:37.667Z,9.99
2023-02-24T19:09:41.566Z,9.89
2023-02-24T19:12:43.175Z,9.70
2023-02-24T19:15:44.715Z,9.44
2023-02-24T19:18:50.087Z,9.18
2023-02-24T19:21:51.586Z,8.99
2023-02-24T19:24:52.961Z,8.92
2023-02-24T19:27:54.385Z,8.85
2023-02-24T19:30:56.178Z,8.78
2023-02-24T19:34:01.501Z,8.70
2023-02-24T19:37:02.927Z,8.52
2023-02-24T19:40:04.549Z,8.53
2023-02-24T19:43:06.639Z,8.36
2023-02-24T19:46:10.966Z,8.28
2023-02-24T19:49:13.148Z,8.31
2023-02-24T19:52:14.563Z,8.22
2023-02-24T19:55:16.095Z,8.14
2023-02-24T19:58:17.513Z,8.04
2023-02-24T20:01:19.123Z,7.85
2023-02-24T20:04:21.964Z,7.70
2023-02-24T20:07:24.337Z,7.61
2023-02-24T20:10:25.800Z,7.46
2023-02-24T20:13:27.645Z,7.29
2023-02-24T20:16:32.475Z,7.16
2023-02-24T20:19:34.200Z,6.85
2023-02-24T20:22:35.635Z,6.70
2023-02-24T20:25:37.064Z,6.56
2023-02-24T20:28:38.451Z,6.51
2023-02-24T20:31:40.594Z,6.47
2023-02-24T20:34:42.358Z,6.37
2023-02-24T20:37:43.761Z,6.34
2023-02-24T20:40:45.138Z,6.42
2023-02-24T20:43:46.920Z,6.60
2023-02-24T20:46:48.388Z,6.51
2023-02-24T20:49:49.782Z,6.50
2023-02-24T20:52:51.323Z,6.64
2023-02-24T20:56:01.204Z,6.70
2023-02-24T20:59:08.854Z,6.78
2023-02-24T21:02:11.654Z,6.65
2023-02-24T21:05:20.223Z,6.70
2023-02-24T21:08:21.596Z,6.77
2023-02-24T21:11:23.765Z,6.69
2023-02-24T21:14:25.223Z,6.69
2023-02-24T21:17:26.620Z,6.72
2023-02-24T21:20:28.009Z,6.79
2023-02-24T21:23:29.452Z,6.85
2023-02-24T21:26:30.825Z,6.87
2023-02-24T21:29:32.220Z,6.81
2023-02-24T21:32:34.088Z,6.82
2023-02-24T21:35:35.524Z,6.81
2023-02-24T21:38:37.750Z,6.77
2023-02-24T21:41:39.202Z,6.79
2023-02-24T21:44:44.162Z,6.95
2023-02-24T21:47:46.056Z,6.83
2023-02-24T21:51:00.219Z,6.79
2023-02-24T21:54:01.641Z,6.89
2023-02-24T21:57:03.588Z,6.83
2023-02-24T22:00:17.843Z,6.90
2023-02-24T22:03:19.289Z,6.83
2023-02-24T22:06:21.239Z,6.87
2023-02-24T22:09:22.954Z,6.82
2023-02-24T22:12:24.333Z,6.81
2023-02-24T22:15:25.821Z,6.89
2023-02-24T22:18:27.421Z,6.99
2023-02-24T22:21:29.880Z,6.93
2023-02-24T22:24:31.637Z,7.01
2023-02-24T22:27:33.513Z,7.13
2023-02-24T22:30:35.174Z,7.08
2023-02-24T22:33:40.640Z,7.14
2023-02-24T22:36:42.057Z,7.00
2023-02-24T22:39:43.427Z,7.01
2023-02-24T22:42:44.812Z,6.93
2023-02-24T22:45:55.843Z,6.97
2023-02-24T22:48:57.621Z,7.02
2023-02-24T22:51:59.087Z,6.97
2023-02-24T22:55:01.040Z,7.13
2023-02-24T22:58:02.430Z,7.12
2023-02-24T23:01:28.242Z,7.16
2023-02-24T23:04:29.776Z,7.09
2023-02-24T23:07:31.158Z,7.14
2023-02-24T23:10:33.394Z,7.17
2023-02-24T23:13:38.230Z,7.19
2023-02-24T23:16:41.233Z,7.18
2023-02-24T23:19:42.663Z,7.24
2023-02-24T23:22:45.138Z,7.26
2023-02-24T23:25:51.266Z,7.18
2023-02-24T23:28:52.749Z,7.09
2023-02-24T23:31:54.402Z,7.16
2023-02-24T23:34:56.116Z,7.12
2023-02-24T23:37:57.546Z,7.10
2023-02-24T23:40:59.397Z,6.98
2023-02-24T23:44:00.806Z,6.96
2023-02-24T23:47:04.867Z,6.95
2023-02-24T23:50:07.545Z,6.99
2023-02-24T23:53:09.912Z,7.11
2023-02-24T23:56:23.893Z,6.95
2023-02-24T23:59:26.452Z,6.92
